Time;durP1;ratioP1;P1;durP2;ratioP2;P2;SDS_P1;SDS_P2;PMS_P1;PMS_P2;Temp;Humidity;BMP_temperature;BMP_pressure;BME280_temperature;BME280_humidity;BME280_pressure;Samples;Min_cycle;Max_cycle;Signal;HPM_P1;HPM_P2
2021/12/08 08:25:11;;;;;;;22.10;12.52;;;;;;;-145.42;47.54;46200.91;5016053;28;20429;-40
2021/12/08 08:27:38;;;;;;;16.33;10.10;;;;;;;-145.42;47.38;46195.09;5020686;28;20064;-45
2021/12/08 08:30:08;;;;;;;16.00;11.23;;;;;;;-145.42;47.10;46177.72;5017383;28;20112;-42
2021/12/08 08:32:37;;;;;;;22.33;12.23;;;;;;;-145.42;46.89;46173.84;5041038;28;20454;-37
2021/12/08 08:35:09;;;;;;;19.20;12.73;;;;;;;-145.42;46.73;46212.50;5040030;28;20036;-37
2021/12/08 08:37:34;;;;;;;19.15;12.48;;;;;;;-145.42;46.36;46193.19;5040783;28;20120;-38
2021/12/08 08:40:06;;;;;;;17.63;11.38;;;;;;;-145.42;46.48;46200.91;5041119;28;20067;-38
2021/12/08 08:42:37;;;;;;;16.13;10.15;;;;;;;-145.42;46.10;46227.97;5040797;28;20116;-40
2021/12/08 08:45:12;;;;;;;15.10;11.18;;;;;;;-145.42;45.92;46233.78;5038524;28;20063;-39
2021/12/08 08:47:45;;;;;;;16.90;12.47;;;;;;;-145.42;46.04;46210.56;5038745;28;20041;-41
2021/12/08 08:50:17;;;;;;;18.17;11.95;;;;;;;-145.42;45.74;46227.97;5040356;28;20160;-41
2021/12/08 08:52:47;;;;;;;16.67;11.20;;;;;;;-145.42;45.52;46220.25;5039157;28;20128;-41
2021/12/08 08:55:18;;;;;;;16.27;11.80;;;;;;;-145.42;45.55;46191.25;5040782;28;20124;-49
2021/12/08 08:57:45;;;;;;;16.55;10.57;;;;;;;-145.42;45.37;46212.50;5038920;28;20041;-41
2021/12/08 09:00:31;;;;;;;17.38;11.45;;;;;;;-145.42;45.38;46183.50;5040113;28;20125;-41
2021/12/08 09:02:59;;;;;;;;;;;;;;;-145.42;45.73;46224.09;5040503;28;20039;-45
2021/12/08 09:05:32;;;;;;;18.90;11.32;;;;;;;-145.42;45.43;46216.38;5040190;28;20011;-45
2021/12/08 09:08:00;;;;;;;14.57;10.98;;;;;;;-145.42;45.48;46177.72;5040071;28;20041;-44
2021/12/08 09:10:32;;;;;;;17.30;11.38;;;;;;;-145.42;45.39;46187.38;5039701;28;20057;-44
2021/12/08 09:13:13;;;;;;;15.60;11.13;;;;;;;-145.42;45.25;46206.72;5039294;28;20040;-44
2021/12/08 09:16:08;;;;;;;15.48;10.77;;;;;;;-145.42;45.05;46216.38;5038381;28;20132;-46
2021/12/08 09:19:01;;;;;;;16.80;11.90;;;;;;;-145.42;45.17;46218.31;5037199;28;20114;-45
2021/12/08 09:21:55;;;;;;;18.17;11.48;;;;;;;-145.42;44.94;46218.31;5036989;28;20111;-42
2021/12/08 09:24:48;;;;;;;17.65;10.90;;;;;;;-145.42;45.01;46191.25;5038280;28;20033;-46
2021/12/08 09:27:35;;;;;;;14.70;10.90;;;;;;;-145.42;45.12;46181.56;5034433;28;20037;-42
2021/12/08 09:30:12;;;;;;;15.98;11.02;;;;;;;-145.42;45.16;46200.91;5039095;28;20121;-42
2021/12/08 09:32:46;;;;;;;15.88;11.07;;;;;;;-145.42;44.80;46241.50;5039281;28;20059;-40
2021/12/08 09:35:27;;;;;;;15.55;10.57;;;;;;;-145.42;44.58;46204.78;5029640;28;20033;-37
2021/12/08 09:38:07;;;;;;;14.68;10.90;;;;;;;-145.42;44.67;46200.91;5025546;28;20083;-46
2021/12/08 09:40:39;;;;;;;14.93;11.30;;;;;;;-145.42;44.94;46231.84;5026535;28;20036;-46
2021/12/08 09:43:13;;;;;;;15.27;10.90;;;;;;;-145.42;44.75;46195.09;5023288;28;20488;-44
2021/12/08 18:37:15;;;;;;;11.18;8.48;;;;;;;-145.42;46.82;46258.91;5049826;27;21014;-47
2021/12/08 18:39:41;;;;;;;10.70;8.38;;;;;;;-145.42;46.81;46214.44;5048239;28;20037;-48
2021/12/08 18:42:08;;;;;;;10.23;7.82;;;;;;;-145.42;46.74;46245.38;5027850;28;20045;-42
2021/12/08 18:44:34;;;;;;;12.75;7.63;;;;;;;-145.42;46.80;46233.78;5032037;28;20032;-42
2021/12/08 18:46:59;;;;;;;12.40;8.27;;;;;;;-145.42;46.95;46231.84;5017570;28;20520;-38
2021/12/08 18:49:25;;;;;;;14.18;9.52;;;;;;;-145.42;46.98;46226.03;5028007;28;20049;-41
2021/12/08 18:51:51;;;;;;;13.57;9.45;;;;;;;-145.42;47.03;46208.66;5023815;28;20541;-39
2021/12/08 18:54:19;;;;;;;12.07;9.07;;;;;;;-145.42;46.92;46237.66;5019053;28;20792;-39
2021/12/08 18:56:52;;;;;;;12.10;8.50;;;;;;;-145.42;46.96;46239.56;5019509;28;20038;-40
2021/12/08 18:59:19;;;;;;;13.32;9.57;;;;;;;-145.42;46.67;46222.19;5012734;28;20042;-39
2021/12/08 19:01:47;;;;;;;14.57;8.95;;;;;;;-145.42;46.60;46226.03;5029090;28;20161;-40
2021/12/08 19:04:13;;;;;;;12.43;9.52;;;;;;;-145.42;46.67;46224.09;5020739;28;20881;-40
2021/12/08 19:06:40;;;;;;;16.88;9.68;;;;;;;-145.42;46.60;46227.97;5017875;28;20184;-37
2021/12/08 19:09:08;;;;;;;14.45;9.55;;;;;;;-145.42;46.57;46218.31;5027607;28;20069;-38
2021/12/08 19:11:35;;;;;;;14.05;10.50;;;;;;;-145.42;46.53;46266.63;5013343;28;20104;-39
2021/12/08 19:14:02;;;;;;;15.55;10.25;;;;;;;-145.42;46.61;46212.50;5018730;28;20042;-41
2021/12/08 19:16:28;;;;;;;19.67;10.93;;;;;;;-145.42;46.33;46227.97;5022178;28;20868;-41
2021/12/08 19:18:57;;;;;;;16.25;11.00;;;;;;;-145.42;46.64;46237.66;5021372;28;20148;-41
2021/12/08 19:21:23;;;;;;;16.60;10.63;;;;;;;-145.42;49.17;46233.78;5018094;28;20052;-40
2021/12/08 19:23:49;;;;;;;15.57;11.10;;;;;;;-145.42;46.52;46241.50;5017485;28;20045;-41
2021/12/08 19:26:16;;;;;;;21.88;15.50;;;;;;;-145.42;46.90;46233.78;5019186;28;20044;-40
2021/12/08 19:28:41;;;;;;;25.67;16.00;;;;;;;-145.42;47.31;46241.50;5016535;28;20145;-38
2021/12/08 19:31:08;;;;;;;21.45;15.82;;;;;;;-145.42;47.42;46220.25;5028637;28;20049;-42
2021/12/08 19:33:37;;;;;;;23.55;14.55;;;;;;;-145.42;47.64;46206.72;5038640;28;20052;-45
2021/12/08 19:36:04;;;;;;;19.60;13.95;;;;;;;-145.42;47.64;46241.50;5026862;28;20045;-39
2021/12/08 19:38:32;;;;;;;18.08;13.63;;;;;;;-145.42;47.74;46253.09;5019776;28;20037;-37
2021/12/08 19:40:58;;;;;;;22.70;15.07;;;;;;;-145.42;47.88;46253.09;5025958;28;20045;-36
2021/12/08 19:43:24;;;;;;;19.80;15.23;;;;;;;-145.42;48.31;46198.97;5020942;28;20045;-38
2021/12/08 19:45:51;;;;;;;20.38;15.68;;;;;;;-145.42;48.28;46272.44;5015385;28;20044;-37
2021/12/08 19:48:20;;;;;;;20.40;15.02;;;;;;;-145.42;48.52;46258.91;5004454;28;20563;-38
2021/12/08 19:50:48;;;;;;;30.27;17.52;;;;;;;-145.42;48.08;46274.38;5012147;28;20038;-40
2021/12/08 19:53:14;;;;;;;22.52;14.98;;;;;;;-145.42;47.85;46255.03;5007562;28;20120;-38
2021/12/08 19:55:40;;;;;;;19.45;13.77;;;;;;;-145.42;47.75;46237.66;5003197;28;20542;-38
2021/12/08 19:58:06;;;;;;;20.40;13.43;;;;;;;-145.42;47.80;46235.72;5021954;28;20053;-39
2021/12/08 20:00:35;;;;;;;19.20;13.32;;;;;;;-145.42;47.38;46204.78;5004364;28;20034;-38
2021/12/08 20:03:04;;;;;;;17.67;13.20;;;;;;;-145.42;47.34;46249.25;5005066;28;20588;-37
2021/12/08 20:05:33;;;;;;;20.20;13.57;;;;;;;-145.42;47.33;46226.03;5002738;28;20121;-37
2021/12/08 20:07:59;;;;;;;17.15;13.05;;;;;;;-145.42;47.31;46262.78;5003609;28;20042;-38
2021/12/08 20:10:26;;;;;;;16.90;12.23;;;;;;;-145.42;47.17;46231.84;5002092;28;20044;-39
2021/12/08 20:12:52;;;;;;;18.83;12.10;;;;;;;-145.42;47.08;46258.91;4999575;28;20066;-39
2021/12/08 20:15:21;;;;;;;19.85;12.15;;;;;;;-145.42;47.01;46224.09;5004680;28;20390;-39
2021/12/08 20:17:47;;;;;;;18.63;12.82;;;;;;;-145.42;46.85;46173.84;5005044;28;20129;-38
2021/12/08 20:20:14;;;;;;;18.25;11.95;;;;;;;-145.42;46.89;46270.50;5007926;28;20058;-37
2021/12/08 20:22:43;;;;;;;16.15;11.13;;;;;;;-145.42;46.96;46260.84;5010741;28;20126;-40
2021/12/08 20:25:11;;;;;;;18.23;11.30;;;;;;;-145.42;46.89;46235.72;5009128;28;20401;-39
2021/12/08 20:27:36;;;;;;;14.25;10.32;;;;;;;-145.42;46.82;46220.25;5003021;28;20042;-39
2021/12/08 20:30:03;;;;;;;14.82;11.00;;;;;;;-145.42;46.66;46237.66;5010118;28;20133;-38
2021/12/08 20:32:29;;;;;;;16.33;11.50;;;;;;;-145.42;46.74;46239.56;5008301;28;20116;-37
2021/12/08 20:34:56;;;;;;;15.88;11.48;;;;;;;-145.42;46.79;46233.78;5004176;28;20124;-36
2021/12/08 20:37:24;;;;;;;14.98;11.38;;;;;;;-145.42;46.78;46202.84;5004050;28;20120;-35
2021/12/08 20:39:51;;;;;;;17.45;10.95;;;;;;;-145.42;46.68;46253.09;5009685;28;20125;-36
2021/12/08 20:42:17;;;;;;;13.88;10.48;;;;;;;-145.42;46.43;46253.09;5001863;28;20129;-38
2021/12/08 20:44:43;;;;;;;13.27;10.52;;;;;;;-145.42;46.40;46241.50;5008626;28;20029;-39
2021/12/08 20:47:10;;;;;;;15.65;9.82;;;;;;;-145.42;46.17;46206.72;5000913;28;20046;-39
2021/12/08 20:49:36;;;;;;;12.25;9.70;;;;;;;-145.42;46.16;46237.66;4997032;28;20137;-39
2021/12/08 20:52:03;;;;;;;14.85;9.68;;;;;;;-145.42;46.41;46214.44;5007911;28;20060;-41
2021/12/08 20:54:31;;;;;;;12.35;9.90;;;;;;;-145.42;46.42;46210.56;4996841;28;20041;-42
2021/12/08 20:56:57;;;;;;;17.75;10.02;;;;;;;-145.42;46.27;46224.09;5006745;28;20121;-40
2021/12/08 20:59:26;;;;;;;12.55;9.18;;;;;;;-145.42;46.47;46245.38;4998795;28;20054;-40
2021/12/08 21:01:55;;;;;;;13.73;9.70;;;;;;;-145.42;46.33;46233.78;5000879;28;20038;-40
2021/12/08 21:04:23;;;;;;;17.48;10.70;;;;;;;-145.42;46.28;46210.56;5001969;28;20141;-41
2021/12/08 21:06:49;;;;;;;13.45;9.55;;;;;;;-145.42;46.26;46239.56;4998114;28;20038;-40
2021/12/08 21:09:15;;;;;;;13.27;9.57;;;;;;;-145.42;45.92;46237.66;5004101;28;20386;-38
2021/12/08 21:11:41;;;;;;;15.10;9.90;;;;;;;-145.42;45.87;46253.09;4998652;28;20160;-36
2021/12/08 21:14:08;;;;;;;12.50;9.68;;;;;;;-145.42;46.10;46231.84;5000993;28;20128;-36
2021/12/08 21:16:35;;;;;;;16.10;10.07;;;;;;;-145.42;45.78;46274.38;5000956;28;20034;-36
2021/12/08 21:19:01;;;;;;;19.40;10.20;;;;;;;-145.42;46.21;46249.25;4996636;28;20038;-35
2021/12/08 21:21:29;;;;;;;17.77;10.73;;;;;;;-145.42;45.85;46231.84;5003585;28;20471;-42
2021/12/08 21:23:56;;;;;;;18.33;11.48;;;;;;;-145.42;45.86;46214.44;4998898;28;20042;-40
2021/12/08 21:26:22;;;;;;;16.25;10.90;;;;;;;-145.42;45.39;46198.97;4997734;28;20120;-35
2021/12/08 21:28:50;;;;;;;16.13;11.45;;;;;;;-145.42;45.30;46231.84;5001207;28;20057;-34
2021/12/08 21:31:16;;;;;;;13.02;10.13;;;;;;;-145.42;45.26;46256.97;5013026;28;20037;-35
2021/12/08 21:33:48;;;;;;;16.45;10.82;;;;;;;-145.42;45.18;46253.09;5004823;28;20137;-35
2021/12/08 21:36:14;;;;;;;15.23;11.23;;;;;;;-145.42;45.21;46218.31;5014927;28;20037;-35
2021/12/08 21:38:44;;;;;;;18.45;11.18;;;;;;;-145.42;45.34;46243.44;5013200;28;20048;-43
2021/12/08 21:41:11;;;;;;;15.10;10.63;;;;;;;-145.42;45.32;46220.25;5018581;28;20541;-43
2021/12/08 21:43:41;;;;;;;16.05;11.35;;;;;;;-145.42;45.36;46251.19;5011899;28;20044;-45
2021/12/08 21:46:07;;;;;;;13.70;10.90;;;;;;;-145.42;45.51;46241.50;5018353;28;20688;-45
2021/12/08 21:48:35;;;;;;;15.90;10.75;;;;;;;-145.42;45.52;46247.31;5045711;28;20144;-42
2021/12/08 21:51:01;;;;;;;15.48;11.35;;;;;;;-145.42;45.46;46237.66;5017710;28;20120;-42
2021/12/08 21:53:27;;;;;;;17.20;11.50;;;;;;;-145.42;45.54;46224.09;5017772;28;20150;-41
2021/12/08 21:55:55;;;;;;;18.20;10.65;;;;;;;-145.42;45.39;46189.31;5016812;28;20128;-41
2021/12/08 21:58:21;;;;;;;14.82;10.50;;;;;;;-145.42;45.47;46218.31;5021125;28;20045;-41
2021/12/08 22:00:50;;;;;;;15.00;11.07;;;;;;;-145.42;45.59;46233.78;5016748;28;20095;-42
2021/12/08 22:03:18;;;;;;;18.05;10.90;;;;;;;-145.42;45.38;46243.44;5019300;28;20594;-42
2021/12/08 22:05:44;;;;;;;14.98;10.95;;;;;;;-145.42;45.43;46258.91;5017888;28;20038;-43
2021/12/08 22:08:14;;;;;;;14.70;10.80;;;;;;;-145.42;45.36;46241.50;5017208;28;20049;-42
2021/12/08 22:10:40;;;;;;;17.80;11.90;;;;;;;-145.42;45.47;46224.09;5018886;28;20468;-39
2021/12/08 22:13:08;;;;;;;17.15;11.45;;;;;;;-145.42;45.43;46193.19;5017722;28;20156;-42
2021/12/08 22:15:42;;;;;;;15.52;11.30;;;;;;;-145.42;45.40;46210.56;5018328;28;20083;-43
2021/12/08 22:18:19;;;;;;;15.80;11.05;;;;;;;-145.42;45.41;46249.25;5004935;28;20038;-43
2021/12/08 22:20:46;;;;;;;14.05;11.05;;;;;;;-145.42;45.34;46193.19;5001695;28;20041;-42
2021/12/08 22:23:12;;;;;;;17.08;11.18;;;;;;;-145.42;45.43;46206.72;5009033;28;20036;-43
2021/12/08 22:25:38;;;;;;;14.25;11.05;;;;;;;-145.42;45.41;46212.50;4994999;28;20049;-42
2021/12/08 22:28:09;;;;;;;17.35;11.15;;;;;;;-145.42;45.42;46235.72;5012159;28;20049;-42
2021/12/08 22:30:36;;;;;;;16.20;10.95;;;;;;;-145.42;45.36;46224.09;4997976;28;20464;-42
2021/12/08 22:33:04;;;;;;;16.90;11.40;;;;;;;-145.42;45.37;46227.97;5001648;28;20607;-41
2021/12/08 22:35:31;;;;;;;15.60;11.48;;;;;;;-145.42;45.38;46256.97;5005047;28;20046;-42
2021/12/08 22:37:57;;;;;;;12.38;10.45;;;;;;;-145.42;45.38;46241.50;4997325;28;20120;-42
2021/12/08 22:40:26;;;;;;;14.70;11.25;;;;;;;-145.42;45.57;46212.50;5012524;28;20049;-41
2021/12/08 22:42:54;;;;;;;14.27;10.90;;;;;;;-145.42;45.52;46220.25;4998150;28;20045;-42
2021/12/08 22:45:21;;;;;;;15.48;10.95;;;;;;;-145.42;45.51;46216.38;5007408;28;20035;-41
2021/12/08 22:47:48;;;;;;;16.05;11.57;;;;;;;-145.42;45.48;46193.19;5003188;28;20034;-40
2021/12/08 22:50:20;;;;;;;14.13;11.45;;;;;;;-145.42;45.55;46241.50;5000536;28;20641;-42
2021/12/08 22:52:47;;;;;;;13.85;10.77;;;;;;;-145.42;45.34;46235.72;5012744;28;20042;-43
2021/12/08 22:55:16;;;;;;;16.17;11.70;;;;;;;-145.42;45.50;46204.78;4998070;28;20092;-37
2021/12/08 22:57:45;;;;;;;15.80;11.93;;;;;;;-145.42;45.48;46218.31;5000618;28;20038;-42
2021/12/08 23:00:39;;;;;;;15.77;10.93;;;;;;;-145.42;45.27;46237.66;5003661;28;20378;-41
2021/12/08 23:03:07;;;;;;;15.32;11.55;;;;;;;-145.42;45.34;46251.19;4997530;28;20046;-42
2021/12/08 23:05:35;;;;;;;15.35;11.48;;;;;;;-145.42;45.25;46245.38;5003701;28;20476;-43
2021/12/08 23:08:05;;;;;;;14.98;11.07;;;;;;;-145.42;45.33;46212.50;4992593;28;20030;-42
2021/12/08 23:10:34;;;;;;;13.45;10.68;;;;;;;-145.42;45.35;46255.03;5004841;28;20041;-42
2021/12/08 23:13:02;;;;;;;14.63;10.70;;;;;;;-145.42;45.27;46198.97;4991850;28;20572;-37
2021/12/08 23:15:29;;;;;;;15.35;11.13;;;;;;;-145.42;45.33;46226.03;4999126;28;20764;-39
2021/12/08 23:17:55;;;;;;;17.05;12.02;;;;;;;-145.42;45.34;46200.91;5007132;28;20422;-34
2021/12/08 23:20:25;;;;;;;16.33;11.57;;;;;;;-145.42;45.17;46198.97;4994973;28;20042;-42
2021/12/08 23:22:54;;;;;;;16.63;11.63;;;;;;;-145.42;45.36;46258.91;5010013;28;20129;-42
2021/12/08 23:25:20;;;;;;;14.40;11.52;;;;;;;-145.42;45.40;46197.03;5004984;28;20107;-40
2021/12/08 23:27:45;;;;;;;16.30;12.18;;;;;;;-145.42;45.50;46187.38;5004124;28;20452;-42
2021/12/08 23:30:12;;;;;;;15.10;11.85;;;;;;;-145.42;45.43;46229.91;5011588;28;20042;-42
2021/12/08 23:32:38;;;;;;;15.68;11.55;;;;;;;-145.42;45.28;46220.25;4997029;28;20088;-42
2021/12/08 23:35:31;;;;;;;16.35;11.70;;;;;;;-145.42;45.31;46206.72;5014444;28;20724;-42
2021/12/08 23:40:29;;;;;;;15.13;11.48;;;;;;;-145.42;45.22;46231.84;5010046;28;20034;-41
2021/12/08 23:42:56;;;;;;;14.07;11.52;;;;;;;-145.42;45.41;46204.78;5006004;28;20413;-41
2021/12/08 23:45:22;;;;;;;14.13;11.02;;;;;;;-145.42;45.38;46241.50;5004670;28;20044;-40
2021/12/08 23:47:48;;;;;;;15.25;11.45;;;;;;;-145.42;45.30;46214.44;5010707;28;20041;-42
2021/12/08 23:50:14;;;;;;;16.40;11.40;;;;;;;-145.42;45.50;46218.31;5000080;28;20100;-39
2021/12/08 23:52:39;;;;;;;15.00;11.70;;;;;;;-145.42;45.34;46218.31;5009768;28;20041;-42
2021/12/08 23:55:08;;;;;;;14.85;11.80;;;;;;;-145.42;45.37;46208.66;5006358;28;20057;-39
2021/12/08 23:57:35;;;;;;;17.10;12.18;;;;;;;-145.42;45.52;46233.78;5003323;28;20065;-39
